Time;durP1;ratioP1;P1;durP2;ratioP2;P2;SDS_P1;SDS_P2;PMS_P1;PMS_P2;Temp;Humidity;BMP_temperature;BMP_pressure;BME280_temperature;BME280_humidity;BME280_pressure;Samples;Min_cycle;Max_cycle;Signal;HPM_P1;HPM_P2
2022/12/05 00:02:20;;;;;;;89.00;45.80;;;4.00;1.00;;;;;;6235436;22;20220;-88
2022/12/05 00:05:02;;;;;;;86.25;44.28;;;3.90;1.00;;;;;;6234577;22;20315;-84
2022/12/05 00:07:40;;;;;;;89.78;44.42;;;3.90;1.00;;;;;;6194213;22;20198;-88
2022/12/05 00:10:23;;;;;;;94.47;46.47;;;4.00;1.00;;;;;;6217170;22;20641;-86
2022/12/05 00:12:53;;;;;;;94.53;47.47;;;4.00;1.00;;;;;;6201946;22;20229;-86
2022/12/05 00:15:34;;;;;;;;;;;;;;;;;;;;;
2022/12/05 00:18:34;;;;;;;92.85;49.08;;;4.00;1.00;;;;;;6220448;22;39269;-87
2022/12/05 00:21:42;;;;;;;92.90;48.10;;;4.00;1.00;;;;;;6223654;22;20219;-87
2022/12/05 00:24:14;;;;;;;99.32;48.50;;;4.10;1.00;;;;;;6216881;22;20262;-89
2022/12/05 00:26:44;;;;;;;90.10;48.25;;;4.10;1.00;;;;;;6213619;22;20229;-86
2022/12/05 00:29:30;;;;;;;96.13;45.63;;;4.10;1.00;;;;;;6200326;22;20243;-87
2022/12/05 00:32:03;;;;;;;94.43;45.13;;;4.10;1.00;;;;;;6213943;22;20219;-88
2022/12/05 00:34:34;;;;;;;97.75;46.47;;;4.00;1.00;;;;;;6189061;22;20225;-85
2022/12/05 00:37:25;;;;;;;99.55;47.92;;;4.10;1.00;;;;;;6224033;22;20215;-86
2022/12/05 00:40:04;;;;;;;96.85;45.50;;;4.10;1.00;;;;;;6236158;22;20259;-87
2022/12/05 00:42:54;;;;;;;92.43;47.78;;;4.00;1.00;;;;;;6202352;22;20219;-88
2022/12/05 00:45:25;;;;;;;89.85;45.85;;;4.10;1.00;;;;;;6213509;22;20215;-88
2022/12/05 00:47:55;;;;;;;86.10;45.15;;;4.10;1.00;;;;;;6215122;22;20253;-87
2022/12/05 00:50:24;;;;;;;86.75;43.47;;;4.20;1.00;;;;;;6189996;22;20270;-86
2022/12/05 00:53:07;;;;;;;88.97;48.47;;;4.20;1.00;;;;;;6202428;22;20232;-87
2022/12/05 00:55:44;;;;;;;92.43;45.20;;;4.10;1.00;;;;;;6198295;22;20201;-86
2022/12/05 00:58:14;;;;;;;89.63;46.67;;;4.10;1.00;;;;;;6184013;22;20210;-87
2022/12/05 01:03:27;;;;;;;91.32;46.00;;;4.10;1.00;;;;;;6161530;22;20258;-85
2022/12/05 01:06:05;;;;;;;81.80;46.05;;;4.20;1.00;;;;;;6213148;22;20290;-87
2022/12/05 01:08:37;;;;;;;90.50;48.22;;;4.20;1.00;;;;;;6196834;22;20207;-87
2022/12/05 01:14:03;;;;;;;98.47;48.97;;;4.20;1.00;;;;;;6206311;22;20202;-86
2022/12/05 01:16:36;;;;;;;80.85;45.70;;;4.20;1.00;;;;;;6201026;22;20271;-86
2022/12/05 01:19:17;;;;;;;88.63;47.58;;;4.20;1.00;;;;;;6200675;22;20203;-86
2022/12/05 01:21:56;;;;;;;95.43;46.80;;;4.20;1.00;;;;;;6205221;22;20215;-86
2022/12/05 01:25:05;;;;;;;84.13;45.17;;;4.20;1.00;;;;;;6215235;22;21063;-87
2022/12/05 01:27:36;;;;;;;92.57;45.58;;;4.20;1.00;;;;;;6149202;23;21144;-85
2022/12/05 01:30:07;;;;;;;93.65;47.20;;;4.20;1.00;;;;;;6140860;23;20213;-86
2022/12/05 01:32:35;;;;;;;86.35;47.65;;;4.10;1.00;;;;;;6204130;22;20915;-86
2022/12/05 01:35:13;;;;;;;87.78;46.67;;;4.10;1.00;;;;;;6198552;22;20187;-87
2022/12/05 01:40:55;;;;;;;99.28;48.53;;;4.10;1.00;;;;;;6207479;22;20224;-87
2022/12/05 01:52:00;;;;;;;96.68;49.08;;;3.90;1.00;;;;;;6209305;22;20211;-87
2022/12/05 01:54:51;;;;;;;94.90;49.13;;;3.90;1.00;;;;;;6214350;22;20211;-86
2022/12/05 01:57:27;;;;;;;91.95;47.60;;;4.00;1.00;;;;;;6213768;22;20212;-87
2022/12/05 02:03:21;;;;;;;80.80;42.97;;;4.00;1.00;;;;;;6210132;22;20207;-87
2022/12/05 02:06:22;;;;;;;;;;;;;;;;;;;;;
2022/12/05 02:09:01;;;;;;;86.63;44.47;;;3.90;1.00;;;;;;6189715;22;50768;-87
2022/12/05 02:11:48;;;;;;;94.18;47.42;;;3.90;1.00;;;;;;6232201;22;20966;-86
2022/12/05 02:14:52;;;;;;;97.43;45.83;;;3.90;1.00;;;;;;6226283;22;20241;-84
2022/12/05 02:17:30;;;;;;;101.78;48.58;;;3.90;1.00;;;;;;6231010;22;20214;-85
2022/12/05 02:20:22;;;;;;;100.65;47.35;;;4.00;1.00;;;;;;6233295;22;20337;-84
2022/12/05 02:23:42;;;;;;;90.85;45.85;;;4.00;1.00;;;;;;6230363;22;20225;-85
2022/12/05 02:26:51;;;;;;;99.82;45.85;;;4.00;1.00;;;;;;6109905;23;20218;-85
2022/12/05 02:30:03;;;;;;;88.10;44.78;;;3.90;1.00;;;;;;6148207;22;20195;-86
2022/12/05 02:33:00;;;;;;;102.30;47.95;;;3.80;1.00;;;;;;6228278;22;20230;-87
2022/12/05 02:35:58;;;;;;;91.57;45.63;;;3.80;1.00;;;;;;6215715;22;20220;-86
2022/12/05 02:38:40;;;;;;;96.88;48.70;;;3.80;1.00;;;;;;6228592;22;20281;-84
2022/12/05 02:41:25;;;;;;;96.72;45.83;;;3.80;1.00;;;;;;6213979;22;20259;-85
2022/12/05 02:44:09;;;;;;;79.20;44.88;;;3.80;1.00;;;;;;6215597;22;20226;-85
2022/12/05 02:46:58;;;;;;;91.13;44.75;;;3.70;1.00;;;;;;6229842;22;20224;-87
2022/12/05 02:50:01;;;;;;;86.38;43.63;;;3.70;1.00;;;;;;6195517;23;20227;-87
2022/12/05 02:52:42;;;;;;;88.47;44.90;;;3.80;1.00;;;;;;6219661;22;20271;-87
2022/12/05 02:55:29;;;;;;;87.85;43.92;;;3.80;1.00;;;;;;6218623;22;20377;-84
2022/12/05 02:58:11;;;;;;;96.00;45.47;;;3.80;1.00;;;;;;6228992;22;20222;-87
2022/12/05 03:00:51;;;;;;;88.80;45.67;;;3.70;1.00;;;;;;6227023;22;20290;-88
2022/12/05 03:06:19;;;;;;;86.07;44.08;;;3.80;1.00;;;;;;6189912;22;20213;-84
2022/12/05 03:09:09;;;;;;;86.00;41.05;;;3.70;1.00;;;;;;6230555;22;20210;-88
2022/12/05 03:12:10;;;;;;;85.05;41.35;;;3.70;1.00;;;;;;6216077;22;20198;-87
2022/12/05 03:15:03;;;;;;;84.25;41.05;;;3.70;1.00;;;;;;6231830;22;20207;-86
2022/12/05 03:17:38;;;;;;;77.75;40.88;;;3.70;1.00;;;;;;6232348;22;20852;-84
2022/12/05 03:20:20;;;;;;;75.57;39.05;;;3.70;1.00;;;;;;6232280;22;20222;-86
2022/12/05 03:22:57;;;;;;;75.15;40.17;;;3.70;1.00;;;;;;6230027;22;20229;-86
2022/12/05 03:25:50;;;;;;;77.63;39.53;;;3.70;1.00;;;;;;6231193;22;21076;-86
2022/12/05 03:28:41;;;;;;;78.90;38.08;;;3.70;1.00;;;;;;6228989;22;20222;-87
2022/12/05 03:31:26;;;;;;;70.60;38.15;;;3.70;1.00;;;;;;6216211;22;20250;-84
2022/12/05 03:34:04;;;;;;;69.65;38.80;;;3.70;1.00;;;;;;6228873;22;20220;-87
2022/12/05 03:36:50;;;;;;;74.10;40.25;;;3.70;1.00;;;;;;6173073;23;20784;-85
2022/12/05 03:39:29;;;;;;;81.80;39.90;;;3.80;1.00;;;;;;6228489;22;20215;-88
2022/12/05 03:42:13;;;;;;;71.70;39.25;;;3.80;1.00;;;;;;6224756;22;20203;-86
2022/12/05 03:45:00;;;;;;;73.47;38.80;;;3.90;1.00;;;;;;6215418;22;20218;-87
2022/12/05 03:47:43;;;;;;;76.90;38.90;;;3.90;1.00;;;;;;6212361;22;20226;-87
2022/12/05 03:50:24;;;;;;;66.03;37.70;;;3.80;1.00;;;;;;6211708;22;20219;-86
2022/12/05 03:53:01;;;;;;;67.63;38.53;;;3.80;1.00;;;;;;6221069;22;20290;-85
2022/12/05 03:55:40;;;;;;;71.63;37.70;;;3.70;1.00;;;;;;6210810;22;20224;-87
2022/12/05 03:58:32;;;;;;;67.88;36.80;;;3.70;1.00;;;;;;6227612;22;20237;-86
2022/12/05 04:01:11;;;;;;;77.28;37.22;;;3.70;1.00;;;;;;6224675;22;20230;-85
2022/12/05 04:03:53;;;;;;;75.68;37.90;;;3.80;1.00;;;;;;6229480;22;20217;-86
2022/12/05 04:06:34;;;;;;;68.47;35.00;;;3.70;1.00;;;;;;6229804;22;20189;-85
2022/12/05 04:09:10;;;;;;;67.18;38.35;;;3.80;1.00;;;;;;6230988;22;20217;-87
2022/12/05 04:12:01;;;;;;;70.65;37.00;;;3.70;1.00;;;;;;6230010;22;21056;-88
2022/12/05 04:14:46;;;;;;;74.38;38.42;;;3.70;1.00;;;;;;6230469;22;20220;-86
2022/12/05 04:17:31;;;;;;;66.93;38.05;;;3.70;1.00;;;;;;6210405;22;20268;-86
2022/12/05 04:23:04;;;;;;;75.35;38.72;;;3.70;1.00;;;;;;6197983;22;20206;-86
2022/12/05 04:25:44;;;;;;;76.38;39.67;;;3.70;1.00;;;;;;6215935;22;20218;-86
2022/12/05 04:28:32;;;;;;;71.32;36.88;;;3.60;1.00;;;;;;6211992;22;20244;-86
2022/12/05 04:31:10;;;;;;;74.70;38.33;;;3.70;1.00;;;;;;6213934;22;20225;-87
2022/12/05 04:33:51;;;;;;;68.70;35.58;;;3.70;1.00;;;;;;6225360;22;20276;-88
2022/12/05 04:39:16;;;;;;;74.07;36.70;;;3.70;1.00;;;;;;6211209;22;20951;-84
2022/12/05 04:41:59;;;;;;;67.85;36.83;;;3.70;1.00;;;;;;6224118;22;20237;-88
2022/12/05 04:44:48;;;;;;;71.38;37.20;;;3.70;1.00;;;;;;6228514;22;20241;-86
2022/12/05 04:47:38;;;;;;;75.10;36.28;;;3.80;1.00;;;;;;6207642;22;20217;-86
2022/12/05 04:50:30;;;;;;;;;;;;;;;;;;;;;
2022/12/05 04:53:27;;;;;;;70.72;35.00;;;3.70;1.00;;;;;;6198189;22;42290;-86
2022/12/05 04:56:06;;;;;;;62.67;34.95;;;3.80;1.00;;;;;;6212184;22;20285;-87
2022/12/05 04:58:40;;;;;;;67.75;36.05;;;3.80;1.00;;;;;;6186700;23;20204;-87
2022/12/05 05:01:28;;;;;;;67.35;39.03;;;3.80;1.00;;;;;;6227634;22;20254;-87
2022/12/05 05:04:06;;;;;;;61.05;32.90;;;3.80;1.00;;;;;;6233462;22;20199;-88
2022/12/05 05:06:38;;;;;;;60.60;32.75;;;3.80;1.00;;;;;;6227150;22;20236;-87
2022/12/05 05:09:08;;;;;;;56.42;32.05;;;3.80;1.00;;;;;;6229111;22;20205;-84
2022/12/05 05:11:51;;;;;;;61.40;35.08;;;3.90;1.00;;;;;;6227040;22;20954;-84
2022/12/05 05:14:21;;;;;;;55.00;31.08;;;3.80;1.00;;;;;;6230454;22;20194;-86
2022/12/05 05:17:00;;;;;;;65.30;33.30;;;3.80;1.00;;;;;;6231374;22;20214;-88
2022/12/05 05:19:41;;;;;;;56.90;32.40;;;3.80;1.00;;;;;;6226963;22;20208;-88
2022/12/05 05:22:10;;;;;;;53.50;28.92;;;3.80;1.00;;;;;;6226336;22;20217;-86
2022/12/05 05:25:02;;;;;;;53.08;32.40;;;3.90;1.00;;;;;;6230979;22;20253;-86
2022/12/05 05:27:33;;;;;;;54.28;30.40;;;3.90;1.00;;;;;;6227702;22;20195;-87
2022/12/05 05:30:03;;;;;;;55.13;27.25;;;3.90;1.00;;;;;;6229085;22;20215;-84
2022/12/05 05:32:32;;;;;;;54.47;30.90;;;3.90;1.00;;;;;;6208785;22;20559;-78
2022/12/05 05:35:01;;;;;;;46.80;26.67;;;3.90;1.00;;;;;;6214025;22;20203;-77
2022/12/05 05:37:28;;;;;;;47.78;28.92;;;4.00;1.00;;;;;;6226442;22;20456;-82
2022/12/05 05:39:59;;;;;;;50.92;28.40;;;4.00;1.00;;;;;;6229164;22;20808;-85
2022/12/05 05:42:26;;;;;;;52.70;28.83;;;4.00;1.00;;;;;;6226364;22;20228;-76
2022/12/05 05:45:01;;;;;;;48.72;27.90;;;4.00;1.00;;;;;;6229478;22;20216;-78
2022/12/05 05:47:29;;;;;;;42.22;25.90;;;4.00;1.00;;;;;;6228918;22;20208;-76
2022/12/05 05:50:07;;;;;;;41.85;25.42;;;4.00;1.00;;;;;;6233326;22;20222;-85
2022/12/05 05:52:43;;;;;;;37.65;23.95;;;4.00;1.00;;;;;;6218135;22;20225;-86
2022/12/05 05:55:12;;;;;;;36.25;23.13;;;4.00;1.00;;;;;;6212118;22;20221;-84
2022/12/05 05:57:45;;;;;;;41.20;22.90;;;4.00;1.00;;;;;;6222571;22;20192;-82
2022/12/05 06:00:13;;;;;;;44.35;24.48;;;4.00;1.00;;;;;;6205046;22;20215;-79
2022/12/05 06:02:45;;;;;;;39.70;26.15;;;3.90;1.00;;;;;;6215967;22;20234;-82
2022/12/05 06:05:22;;;;;;;41.33;24.10;;;3.90;1.00;;;;;;6199846;22;20309;-84
2022/12/05 06:07:49;;;;;;;39.83;23.52;;;3.90;1.00;;;;;;6214065;22;20791;-84
2022/12/05 06:10:21;;;;;;;38.42;23.88;;;3.90;1.00;;;;;;6235731;22;20216;-85
2022/12/05 06:12:50;;;;;;;40.10;24.40;;;3.90;1.00;;;;;;6202484;22;20195;-84
2022/12/05 06:15:23;;;;;;;38.85;26.35;;;3.90;1.00;;;;;;6206138;22;20211;-83
2022/12/05 06:17:50;;;;;;;36.10;21.83;;;4.00;1.00;;;;;;6221557;22;20215;-84
2022/12/05 06:20:26;;;;;;;35.17;21.73;;;4.00;1.00;;;;;;6206144;22;20227;-82
2022/12/05 06:22:53;;;;;;;36.95;22.10;;;3.90;1.00;;;;;;6229439;22;20241;-80
2022/12/05 06:25:23;;;;;;;38.10;22.70;;;4.00;1.00;;;;;;6225171;22;20208;-79
2022/12/05 06:27:51;;;;;;;35.58;22.30;;;4.00;1.00;;;;;;6225489;22;20212;-80
2022/12/05 06:30:19;;;;;;;39.30;23.58;;;4.00;1.00;;;;;;6208610;22;20246;-78
2022/12/05 06:32:49;;;;;;;38.58;22.23;;;3.90;1.00;;;;;;6232281;22;20227;-83
2022/12/05 06:35:17;;;;;;;36.85;25.00;;;4.00;1.00;;;;;;6237620;22;20958;-85
2022/12/05 06:40:30;;;;;;;37.25;22.55;;;4.00;1.00;;;;;;6219934;22;20230;-82
2022/12/05 06:43:12;;;;;;;38.47;23.70;;;4.10;1.00;;;;;;6236747;22;20222;-84
2022/12/05 06:45:52;;;;;;;35.33;22.45;;;4.10;1.00;;;;;;6239923;22;20221;-85
2022/12/05 06:48:26;;;;;;;35.03;21.17;;;4.10;1.00;;;;;;6232435;22;20680;-86
2022/12/05 06:50:56;;;;;;;35.25;23.23;;;4.10;1.00;;;;;;6234822;22;20204;-84
2022/12/05 06:53:28;;;;;;;40.35;22.88;;;4.10;1.00;;;;;;6233516;22;20207;-83
2022/12/05 06:55:57;;;;;;;33.75;22.35;;;4.20;1.00;;;;;;6220829;22;20221;-82
2022/12/05 06:58:33;;;;;;;36.33;22.45;;;4.20;1.00;;;;;;6236966;22;20215;-84
2022/12/05 07:03:53;;;;;;;37.80;21.65;;;4.10;1.00;;;;;;6187298;22;20294;-83
2022/12/05 07:06:47;;;;;;;36.10;21.75;;;4.10;1.00;;;;;;6219458;22;20231;-82
2022/12/05 07:09:17;;;;;;;36.63;22.55;;;4.10;1.00;;;;;;6208502;22;20865;-78
2022/12/05 07:11:55;;;;;;;35.65;24.17;;;4.10;1.00;;;;;;6227569;22;20211;-82
2022/12/05 07:14:33;;;;;;;32.42;21.40;;;4.10;1.00;;;;;;6226435;22;20262;-84
2022/12/05 07:17:02;;;;;;;35.38;22.35;;;4.10;1.00;;;;;;6227557;22;20219;-80
2022/12/05 07:19:46;;;;;;;39.53;23.33;;;4.20;1.00;;;;;;6226327;22;20220;-81
2022/12/05 07:22:13;;;;;;;40.75;23.92;;;4.20;1.00;;;;;;6175827;22;20219;-79
2022/12/05 07:24:47;;;;;;;39.03;23.70;;;4.20;1.00;;;;;;6186444;22;20215;-82
2022/12/05 07:27:15;;;;;;;34.83;24.30;;;4.10;1.00;;;;;;6162946;22;20208;-88
2022/12/05 07:29:46;;;;;;;38.15;23.13;;;4.00;1.00;;;;;;6216792;22;20216;-87
2022/12/05 07:32:13;;;;;;;38.45;23.15;;;4.00;1.00;;;;;;6173474;22;20219;-83
2022/12/05 07:34:56;;;;;;;35.25;21.45;;;4.00;1.00;;;;;;6185203;22;20258;-85
2022/12/05 07:37:27;;;;;;;40.28;27.35;;;3.90;1.00;;;;;;6184448;22;20375;-84
2022/12/05 07:42:36;;;;;;;33.63;22.00;;;4.00;1.00;;;;;;6212434;22;20336;-81
2022/12/05 07:45:05;;;;;;;37.17;23.95;;;4.00;1.00;;;;;;6213159;22;20314;-83
2022/12/05 07:47:35;;;;;;;34.67;22.73;;;4.10;1.00;;;;;;6224674;22;20218;-82
2022/12/05 07:50:04;;;;;;;37.33;21.83;;;4.10;1.00;;;;;;6234377;22;20223;-83
2022/12/05 07:52:37;;;;;;;38.70;23.20;;;4.00;1.00;;;;;;6227615;22;20218;-82
2022/12/05 07:55:07;;;;;;;37.60;23.00;;;4.10;1.00;;;;;;6231264;22;20208;-83
2022/12/05 07:57:35;;;;;;;33.78;21.45;;;4.10;1.00;;;;;;6213095;22;20222;-83
2022/12/05 08:03:05;;;;;;;34.10;20.92;;;4.10;1.00;;;;;;6179221;22;20215;-82
2022/12/05 08:05:39;;;;;;;39.00;21.80;;;4.10;1.00;;;;;;6179957;22;20216;-83
2022/12/05 08:08:06;;;;;;;32.15;20.20;;;4.10;1.00;;;;;;6202154;22;20270;-81
2022/12/05 08:10:36;;;;;;;36.90;22.92;;;4.40;1.00;;;;;;6190767;22;20219;-81
2022/12/05 08:13:03;;;;;;;34.20;21.10;;;4.40;1.00;;;;;;6191414;22;20386;-78
2022/12/05 08:15:30;;;;;;;32.90;21.90;;;4.30;1.00;;;;;;6194356;22;20221;-79
2022/12/05 08:18:05;;;;;;;37.58;22.65;;;4.20;1.00;;;;;;6210637;22;20215;-78
2022/12/05 08:20:33;;;;;;;35.90;22.05;;;4.20;1.00;;;;;;6193838;22;20659;-78
2022/12/05 08:23:03;;;;;;;38.03;22.05;;;4.10;1.00;;;;;;6192238;22;20218;-81
2022/12/05 08:28:53;;;;;;;35.58;20.65;;;4.10;1.00;;;;;;6229590;22;20210;-81
2022/12/05 08:31:50;;;;;;;36.67;22.27;;;4.10;1.00;;;;;;6231407;22;20210;-85
2022/12/05 08:48:29;;;;;;;35.05;20.67;;;4.20;1.00;;;;;;6165306;22;1418913;-78
2022/12/05 08:53:51;;;;;;;33.42;20.15;;;4.00;1.00;;;;;;6202465;23;20247;-81
2022/12/05 08:56:18;;;;;;;34.85;21.02;;;4.10;1.00;;;;;;6207802;23;20220;-79
2022/12/05 08:58:52;;;;;;;35.40;21.92;;;4.10;1.00;;;;;;6209125;22;20217;-80
2022/12/05 09:01:24;;;;;;;33.90;22.95;;;4.10;1.00;;;;;;6209294;23;20216;-82
2022/12/05 09:03:52;;;;;;;33.40;20.83;;;4.10;1.00;;;;;;6205684;23;20288;-78
2022/12/05 09:06:23;;;;;;;30.77;20.00;;;4.20;1.00;;;;;;6194705;23;20208;-77
2022/12/05 09:08:56;;;;;;;27.80;18.48;;;4.20;1.00;;;;;;6226173;23;20221;-82
2022/12/05 09:11:32;;;;;;;26.67;18.35;;;4.10;1.00;;;;;;6203477;23;20316;-79
2022/12/05 09:14:03;;;;;;;30.88;19.90;;;4.10;1.00;;;;;;6204538;23;20217;-80
2022/12/05 09:16:40;;;;;;;31.35;20.45;;;4.10;1.00;;;;;;6185410;23;20224;-81
2022/12/05 09:19:19;;;;;;;25.90;18.40;;;4.10;1.00;;;;;;6204693;23;20221;-85
2022/12/05 09:22:02;;;;;;;29.90;19.35;;;4.00;1.00;;;;;;6204646;22;20208;-87
2022/12/05 09:24:31;;;;;;;29.50;19.52;;;4.00;1.00;;;;;;6217727;23;20273;-79
2022/12/05 09:26:58;;;;;;;30.00;18.65;;;3.90;1.00;;;;;;6207065;23;20939;-80
2022/12/05 09:29:33;;;;;;;32.03;19.55;;;3.90;1.00;;;;;;6203612;23;20214;-83
2022/12/05 09:32:01;;;;;;;41.08;27.08;;;3.90;1.00;;;;;;6209278;23;20315;-81
2022/12/05 09:34:33;;;;;;;29.48;19.30;;;3.90;1.00;;;;;;6201370;23;20206;-80
2022/12/05 09:37:02;;;;;;;30.13;18.50;;;3.90;1.00;;;;;;6204091;23;20213;-83
2022/12/05 09:39:31;;;;;;;28.70;18.42;;;3.90;1.00;;;;;;6211096;23;20209;-84
2022/12/05 09:42:40;;;;;;;28.45;17.88;;;4.00;1.00;;;;;;6214439;23;20710;-83
2022/12/05 09:45:23;;;;;;;28.77;18.55;;;4.10;1.00;;;;;;6190186;23;20217;-82
2022/12/05 09:48:32;;;;;;;32.55;19.23;;;4.20;1.00;;;;;;6192425;23;20208;-79
2022/12/05 09:51:03;;;;;;;30.27;18.10;;;4.10;1.00;;;;;;6160070;23;20224;-81
2022/12/05 09:53:34;;;;;;;27.17;17.75;;;4.10;1.00;;;;;;6192327;23;20226;-81
2022/12/05 09:56:24;;;;;;;27.23;17.73;;;4.20;1.00;;;;;;6188747;23;20236;-84
2022/12/05 09:58:52;;;;;;;30.65;18.63;;;4.20;1.00;;;;;;6188368;23;20214;-80
2022/12/05 10:01:33;;;;;;;26.85;17.20;;;4.20;1.00;;;;;;6188357;23;20200;-79
2022/12/05 10:04:18;;;;;;;30.17;19.25;;;4.20;1.00;;;;;;6192308;23;20975;-81
2022/12/05 10:06:50;;;;;;;32.33;19.05;;;4.20;1.00;;;;;;6179781;23;20216;-81
2022/12/05 10:09:38;;;;;;;35.10;21.63;;;4.10;1.00;;;;;;6192368;23;20214;-79
2022/12/05 10:12:18;;;;;;;45.42;24.95;;;4.20;1.00;;;;;;6195501;23;20214;-82
2022/12/05 10:15:01;;;;;;;34.83;23.00;;;4.20;1.00;;;;;;6201219;23;20733;-85
2022/12/05 10:17:38;;;;;;;30.60;20.67;;;4.30;1.00;;;;;;6194883;23;20225;-82
2022/12/05 10:20:12;;;;;;;27.10;18.33;;;4.30;1.00;;;;;;6192121;23;20566;-83
2022/12/05 10:22:46;;;;;;;29.50;19.25;;;4.20;1.00;;;;;;6195881;23;20218;-80
2022/12/05 10:25:26;;;;;;;33.13;19.38;;;4.20;1.00;;;;;;6200972;23;20232;-85
2022/12/05 10:28:07;;;;;;;26.05;17.25;;;4.20;1.00;;;;;;6183070;23;20208;-86
2022/12/05 10:30:51;;;;;;;30.35;20.25;;;4.20;1.00;;;;;;6181509;23;20224;-86
2022/12/05 10:33:23;;;;;;;30.60;18.55;;;4.30;1.00;;;;;;6216997;23;20216;-86
2022/12/05 10:35:53;;;;;;;28.00;18.65;;;4.20;1.00;;;;;;6211571;23;20218;-85
2022/12/05 10:38:27;;;;;;;31.30;18.45;;;4.10;1.00;;;;;;6216920;22;20285;-84
2022/12/05 10:41:05;;;;;;;32.30;19.45;;;4.20;1.00;;;;;;6207298;23;20201;-85
2022/12/05 10:43:41;;;;;;;28.08;18.85;;;4.20;1.00;;;;;;6192931;23;20273;-79
2022/12/05 10:46:19;;;;;;;;;;;;;;;;;;;;;
2022/12/05 10:48:49;;;;;;;33.08;19.75;;;4.40;1.00;;;;;;6158393;23;41423;-79
2022/12/05 10:51:27;;;;;;;28.23;19.73;;;4.40;1.00;;;;;;6178049;23;20237;-78
2022/12/05 10:54:01;;;;;;;34.22;19.55;;;4.50;1.00;;;;;;6164470;23;20215;-81
2022/12/05 10:56:47;;;;;;;36.03;19.83;;;4.50;1.00;;;;;;6163803;23;20251;-79
2022/12/05 10:59:22;;;;;;;28.67;18.83;;;4.50;1.00;;;;;;6163114;23;20238;-80
2022/12/05 11:02:03;;;;;;;30.08;19.45;;;4.50;1.00;;;;;;6169955;23;20278;-86
2022/12/05 11:04:44;;;;;;;28.00;19.40;;;4.50;1.00;;;;;;6173451;23;20970;-85
2022/12/05 11:07:26;;;;;;;31.13;20.00;;;4.50;1.00;;;;;;6173967;23;20211;-84
2022/12/05 11:10:03;;;;;;;38.03;25.75;;;4.60;1.00;;;;;;6172504;23;20231;-83
2022/12/05 11:12:40;;;;;;;35.53;21.52;;;4.60;1.00;;;;;;6171117;23;20221;-85
2022/12/05 11:15:23;;;;;;;34.38;22.55;;;4.60;1.00;;;;;;6173054;23;20216;-85
2022/12/05 11:17:59;;;;;;;32.22;22.00;;;4.70;1.00;;;;;;6173535;23;20219;-86
2022/12/05 11:20:50;;;;;;;30.83;19.83;;;4.70;1.00;;;;;;6168093;23;20226;-85
2022/12/05 11:23:30;;;;;;;30.23;21.05;;;4.70;1.00;;;;;;6152729;23;20203;-84
2022/12/05 11:29:58;;;;;;;30.67;18.85;;;4.70;1.00;;;;;;6155962;23;20256;-85
2022/12/05 11:35:50;;;;;;;28.73;18.40;;;4.80;1.00;;;;;;6072433;23;20656;-82
2022/12/05 11:38:31;;;;;;;27.30;19.42;;;4.80;1.00;;;;;;6167280;23;20190;-87
2022/12/05 11:41:12;;;;;;;31.45;19.75;;;4.80;1.00;;;;;;6161224;23;20244;-85
2022/12/05 11:43:58;;;;;;;28.55;20.15;;;4.80;1.00;;;;;;6162481;23;20356;-86
2022/12/05 11:46:39;;;;;;;28.00;20.00;;;4.70;1.00;;;;;;6144794;23;20241;-83
2022/12/05 11:49:29;;;;;;;33.08;20.20;;;4.70;1.00;;;;;;6149021;23;20211;-85
2022/12/05 11:52:08;;;;;;;28.30;20.15;;;4.70;1.00;;;;;;6167669;23;20247;-79
2022/12/05 11:55:09;;;;;;;28.60;19.98;;;4.70;1.00;;;;;;6166549;23;20422;-85
2022/12/05 11:58:14;;;;;;;32.42;20.25;;;4.70;1.00;;;;;;6170466;23;20219;-79
2022/12/05 12:00:57;;;;;;;31.95;20.88;;;4.70;1.00;;;;;;6018903;23;21160;-79
2022/12/05 12:04:37;;;;;;;30.40;21.15;;;4.70;1.00;;;;;;6123219;23;20237;-85
2022/12/05 12:07:37;;;;;;;33.55;22.45;;;4.70;1.00;;;;;;6183562;23;20212;-84
2022/12/05 12:10:21;;;;;;;36.65;22.50;;;4.60;1.00;;;;;;6164752;23;20289;-83
2022/12/05 12:13:10;;;;;;;33.97;22.50;;;4.50;1.00;;;;;;6171561;23;20212;-83
2022/12/05 12:15:59;;;;;;;33.20;22.40;;;4.50;1.00;;;;;;6159416;23;20225;-81
2022/12/05 12:18:59;;;;;;;39.35;27.02;;;4.50;1.00;;;;;;6148166;23;20209;-81
2022/12/05 12:21:40;;;;;;;35.53;23.55;;;4.50;1.00;;;;;;6148365;23;20268;-85
2022/12/05 12:24:22;;;;;;;33.33;21.65;;;4.60;1.00;;;;;;6172468;23;20222;-84
2022/12/05 12:27:01;;;;;;;37.00;22.25;;;4.60;1.00;;;;;;6165781;23;20221;-82
2022/12/05 12:29:52;;;;;;;33.63;23.25;;;4.60;1.00;;;;;;6156290;23;20211;-84
2022/12/05 12:32:49;;;;;;;34.00;22.95;;;4.70;1.00;;;;;;6137243;23;20221;-86
2022/12/05 12:35:40;;;;;;;34.58;21.67;;;4.60;1.00;;;;;;6165468;23;20265;-82
2022/12/05 12:38:39;;;;;;;35.40;21.52;;;4.60;1.00;;;;;;6174110;23;20202;-83
2022/12/05 12:41:51;;;;;;;33.42;23.30;;;4.60;1.00;;;;;;6139711;23;20226;-81
2022/12/05 12:44:58;;;;;;;38.00;22.52;;;4.60;1.00;;;;;;6154477;23;20298;-85
2022/12/05 12:47:50;;;;;;;39.60;25.35;;;4.60;1.00;;;;;;6161715;23;20250;-85
2022/12/05 12:50:29;;;;;;;37.25;22.75;;;4.60;1.00;;;;;;6120131;23;20362;-86
2022/12/05 12:53:40;;;;;;;36.35;23.40;;;4.60;1.00;;;;;;6189029;23;20214;-84
2022/12/05 12:56:29;;;;;;;39.40;25.25;;;4.60;1.00;;;;;;6083962;23;21205;-85
2022/12/05 12:59:22;;;;;;;36.53;23.33;;;4.70;1.00;;;;;;6163912;23;20221;-83
2022/12/05 13:01:56;;;;;;;48.83;28.88;;;4.70;1.00;;;;;;6189191;23;20209;-83
2022/12/05 13:04:33;;;;;;;38.03;24.27;;;4.70;1.00;;;;;;6174096;23;20216;-84
2022/12/05 13:07:11;;;;;;;38.95;25.02;;;4.70;1.00;;;;;;6168138;23;20218;-83
2022/12/05 13:09:50;;;;;;;42.67;24.13;;;4.80;1.00;;;;;;6177831;23;20214;-79
2022/12/05 13:12:21;;;;;;;42.38;26.73;;;4.70;1.00;;;;;;6133260;23;20214;-78
2022/12/05 13:14:59;;;;;;;44.47;26.02;;;4.80;1.00;;;;;;6178929;23;20207;-83
2022/12/05 13:17:32;;;;;;;45.28;26.58;;;4.70;1.00;;;;;;6167485;23;20200;-83
2022/12/05 13:20:00;;;;;;;45.28;26.67;;;4.80;1.00;;;;;;6171063;23;20302;-84
2022/12/05 13:22:32;;;;;;;38.55;24.52;;;4.70;1.00;;;;;;6144249;23;20252;-84
2022/12/05 13:24:59;;;;;;;43.40;27.23;;;4.70;1.00;;;;;;6169584;23;20256;-78
2022/12/05 13:27:29;;;;;;;41.47;25.88;;;4.80;1.00;;;;;;6142870;23;20190;-81
2022/12/05 13:29:59;;;;;;;41.42;26.25;;;4.80;1.00;;;;;;6169348;23;20222;-80
2022/12/05 13:32:55;;;;;;;37.97;25.63;;;4.90;1.00;;;;;;6167381;23;20245;-83
2022/12/05 13:44:49;;;;;;;47.20;28.55;;;4.90;1.00;;;;;;6165750;23;20228;-85
2022/12/05 13:47:25;;;;;;;48.60;27.10;;;4.90;1.00;;;;;;6168847;23;20238;-81
2022/12/05 13:50:04;;;;;;;44.25;27.40;;;4.90;1.00;;;;;;6158832;23;20223;-78
2022/12/05 13:52:41;;;;;;;45.78;26.88;;;4.90;1.00;;;;;;6161644;23;20693;-79
2022/12/05 13:55:23;;;;;;;44.88;26.48;;;4.90;1.00;;;;;;6164582;23;20219;-86
2022/12/05 13:57:59;;;;;;;47.33;28.55;;;4.90;1.00;;;;;;6170913;23;20213;-85
2022/12/05 14:00:46;;;;;;;45.60;28.35;;;4.80;1.00;;;;;;6167092;23;20225;-83
2022/12/05 14:03:59;;;;;;;44.40;27.85;;;4.80;1.00;;;;;;6156273;23;20237;-82
2022/12/05 14:07:00;;;;;;;47.00;28.08;;;4.90;1.00;;;;;;6178026;23;20236;-84
2022/12/05 14:09:59;;;;;;;51.38;28.92;;;4.90;1.00;;;;;;6167123;23;20226;-85
2022/12/05 14:12:52;;;;;;;49.72;29.85;;;4.90;1.00;;;;;;6170780;23;20968;-83
2022/12/05 14:15:28;;;;;;;46.63;30.73;;;4.90;1.00;;;;;;6169869;23;20278;-83
2022/12/05 14:18:11;;;;;;;57.45;28.38;;;4.90;1.00;;;;;;6169971;23;20220;-83
2022/12/05 14:21:10;;;;;;;50.08;29.88;;;4.80;1.00;;;;;;6168268;23;20216;-84
2022/12/05 14:24:01;;;;;;;54.53;32.35;;;4.80;1.00;;;;;;6169682;23;20305;-82
2022/12/05 14:27:05;;;;;;;57.50;30.25;;;4.80;1.00;;;;;;6169378;23;20456;-83
2022/12/05 14:30:03;;;;;;;52.42;29.05;;;4.80;1.00;;;;;;6166654;23;20214;-85
2022/12/05 14:32:41;;;;;;;56.50;31.10;;;4.90;1.00;;;;;;6168452;23;20228;-82
2022/12/05 14:35:19;;;;;;;56.85;30.08;;;4.90;1.00;;;;;;6165933;23;20984;-79
2022/12/05 14:38:20;;;;;;;53.25;30.98;;;4.90;1.00;;;;;;6168461;23;20380;-82
2022/12/05 14:41:23;;;;;;;64.55;32.70;;;4.90;1.00;;;;;;6176831;23;20220;-89
2022/12/05 14:44:19;;;;;;;54.58;30.13;;;4.80;1.00;;;;;;6187017;23;20202;-81
2022/12/05 14:47:22;;;;;;;53.45;29.52;;;4.80;1.00;;;;;;6167489;23;21041;-87
2022/12/05 14:50:02;;;;;;;62.63;34.10;;;4.90;1.00;;;;;;6174261;23;20280;-82
2022/12/05 14:55:23;;;;;;;62.15;32.33;;;4.90;1.00;;;;;;6167152;23;20210;-84
2022/12/05 14:57:51;;;;;;;62.97;32.40;;;5.00;1.00;;;;;;6171408;23;20199;-84
2022/12/05 15:00:24;;;;;;;57.10;30.27;;;4.90;1.00;;;;;;6164914;23;20252;-82
2022/12/05 15:03:01;;;;;;;66.65;34.05;;;4.80;1.00;;;;;;6167674;23;20934;-80
2022/12/05 15:05:32;;;;;;;58.83;35.92;;;4.70;1.00;;;;;;6173544;23;20211;-82
2022/12/05 15:08:04;;;;;;;65.40;33.30;;;4.80;1.00;;;;;;6167673;23;20195;-84
2022/12/05 15:10:38;;;;;;;68.03;34.08;;;4.90;1.00;;;;;;6168754;23;20894;-80
2022/12/05 15:13:12;;;;;;;62.15;34.88;;;4.90;1.00;;;;;;6169268;23;20210;-83
2022/12/05 15:15:44;;;;;;;61.20;33.25;;;4.90;1.00;;;;;;6170523;23;20333;-84
2022/12/05 15:18:24;;;;;;;60.05;33.05;;;4.90;1.00;;;;;;6164282;23;20207;-81